createdAt,value
2022-10-28T00:01:03.773Z,91.00
2022-10-28T00:03:31.626Z,91.00
2022-10-28T00:06:05.050Z,91.00
2022-10-28T00:08:33.433Z,90.90
2022-10-28T00:11:06.655Z,90.90
2022-10-28T00:13:35.046Z,90.90
2022-10-28T00:16:08.384Z,90.90
2022-10-28T00:18:36.389Z,90.90
2022-10-28T00:21:08.382Z,90.90
2022-10-28T00:23:36.122Z,90.90
2022-10-28T00:26:08.621Z,90.90
2022-10-28T00:28:36.802Z,90.90
2022-10-28T00:31:09.000Z,90.80
2022-10-28T00:33:36.813Z,90.90
2022-10-28T00:36:15.237Z,90.80
2022-10-28T00:38:44.253Z,90.80
2022-10-28T00:41:14.008Z,90.80
2022-10-28T00:43:43.898Z,90.80
2022-10-28T00:46:20.964Z,90.80
2022-10-28T00:48:53.048Z,90.80
2022-10-28T00:51:23.839Z,90.80
2022-10-28T00:53:54.130Z,90.80
2022-10-28T00:56:23.886Z,90.70
2022-10-28T00:58:52.718Z,90.80
2022-10-28T01:01:20.640Z,90.80
2022-10-28T01:03:48.724Z,90.80
2022-10-28T01:06:17.108Z,90.90
2022-10-28T01:08:46.141Z,91.00
2022-10-28T01:11:37.362Z,91.00
2022-10-28T01:14:21.290Z,91.00
2022-10-28T01:17:05.406Z,91.00
2022-10-28T01:20:07.301Z,91.00
2022-10-28T01:22:39.070Z,91.00
2022-10-28T01:25:31.303Z,90.90
2022-10-28T01:28:24.485Z,91.00
2022-10-28T01:31:24.366Z,90.90
2022-10-28T01:33:55.259Z,90.90
2022-10-28T01:36:31.410Z,90.80
2022-10-28T01:39:08.925Z,90.80
2022-10-28T01:41:46.376Z,90.70
2022-10-28T01:44:23.775Z,90.80
2022-10-28T01:46:59.676Z,90.80
2022-10-28T01:49:34.172Z,90.80
2022-10-28T01:52:06.136Z,90.80
2022-10-28T01:54:35.578Z,90.80
2022-10-28T01:57:06.484Z,90.80
2022-10-28T01:59:35.512Z,90.80
2022-10-28T02:02:04.535Z,91.20
2022-10-28T02:04:32.259Z,90.90
2022-10-28T02:07:01.401Z,91.00
2022-10-28T02:09:38.763Z,91.00
2022-10-28T02:12:23.295Z,91.00
2022-10-28T02:15:27.013Z,91.00
2022-10-28T02:18:17.261Z,91.00
2022-10-28T02:20:52.141Z,91.00
2022-10-28T02:23:28.921Z,90.90
2022-10-28T02:26:03.835Z,90.90
2022-10-28T02:28:41.227Z,90.90
2022-10-28T02:31:17.874Z,90.80
2022-10-28T02:33:52.260Z,90.80
2022-10-28T02:36:23.137Z,90.80
2022-10-28T02:38:54.346Z,90.80
2022-10-28T02:41:26.803Z,90.80
2022-10-28T02:43:58.469Z,90.80
2022-10-28T02:46:30.001Z,90.80
2022-10-28T02:49:04.273Z,90.80
2022-10-28T02:51:36.655Z,90.80
2022-10-28T02:54:10.090Z,90.80
2022-10-28T02:56:40.551Z,90.80
2022-10-28T02:59:12.039Z,90.90
2022-10-28T03:01:40.299Z,90.80
2022-10-28T03:04:09.522Z,90.90
2022-10-28T03:06:37.304Z,90.80
2022-10-28T03:09:05.291Z,90.90
2022-10-28T03:11:33.085Z,90.80
2022-10-28T03:14:01.060Z,90.90
2022-10-28T03:16:28.811Z,91.00
2022-10-28T03:18:56.608Z,91.00
2022-10-28T03:21:25.753Z,91.10
2022-10-28T03:23:53.538Z,91.20
2022-10-28T03:26:21.289Z,91.10
2022-10-28T03:28:49.001Z,91.20
2022-10-28T03:31:17.083Z,91.20
2022-10-28T03:33:45.022Z,91.20
2022-10-28T03:36:12.781Z,91.30
2022-10-28T03:38:41.876Z,91.30
2022-10-28T03:41:09.679Z,91.30
2022-10-28T03:43:37.533Z,91.30
2022-10-28T03:46:05.357Z,91.30
2022-10-28T03:48:33.127Z,91.30
2022-10-28T03:51:00.835Z,91.30
2022-10-28T03:53:31.150Z,91.30
2022-10-28T03:56:01.901Z,91.30
2022-10-28T03:58:30.000Z,91.30
2022-10-28T04:00:57.935Z,91.30
2022-10-28T04:03:26.782Z,91.30
2022-10-28T04:05:54.520Z,91.30
2022-10-28T04:08:22.832Z,91.30
2022-10-28T04:10:50.705Z,91.30
2022-10-28T04:13:19.735Z,91.30
2022-10-28T04:15:47.563Z,91.30
2022-10-28T04:18:15.341Z,91.20
2022-10-28T04:20:43.210Z,91.30
2022-10-28T04:23:16.167Z,91.30
2022-10-28T04:25:43.976Z,91.30
2022-10-28T04:28:11.760Z,91.20
2022-10-28T04:30:40.997Z,91.20
2022-10-28T04:33:09.722Z,91.20
2022-10-28T04:35:39.167Z,91.20
2022-10-28T04:38:06.919Z,91.20
2022-10-28T04:40:34.635Z,91.30
2022-10-28T04:43:08.461Z,91.30
2022-10-28T04:45:38.473Z,91.30
2022-10-28T04:48:07.973Z,91.30
2022-10-28T04:50:36.279Z,91.30
2022-10-28T04:53:04.038Z,91.30
2022-10-28T04:55:31.791Z,91.30
2022-10-28T04:58:01.209Z,91.30
2022-10-28T05:00:30.285Z,91.20
2022-10-28T05:03:01.602Z,91.20
2022-10-28T05:05:30.763Z,91.20
2022-10-28T05:07:58.526Z,91.20
2022-10-28T05:10:26.434Z,91.20
2022-10-28T05:12:54.204Z,91.20
2022-10-28T05:15:21.931Z,91.10
2022-10-28T05:17:50.622Z,91.20
2022-10-28T05:20:19.726Z,91.10
2022-10-28T05:22:50.096Z,91.20
2022-10-28T05:25:18.243Z,91.10
2022-10-28T05:27:46.001Z,91.10
2022-10-28T05:30:14.870Z,91.10
2022-10-28T05:32:42.907Z,91.00
2022-10-28T05:35:11.335Z,91.10
2022-10-28T05:37:39.110Z,91.10
2022-10-28T05:40:09.839Z,91.50
2022-10-28T05:42:42.036Z,91.20
2022-10-28T05:45:10.610Z,91.20
2022-10-28T05:47:43.031Z,91.20
2022-10-28T05:50:11.319Z,91.20
2022-10-28T05:52:39.089Z,91.20
2022-10-28T05:55:08.783Z,91.20
2022-10-28T05:57:36.553Z,91.20
2022-10-28T06:00:06.756Z,91.10
2022-10-28T06:02:34.537Z,91.10
2022-10-28T06:05:02.278Z,91.10
2022-10-28T06:07:30.142Z,91.20
2022-10-28T06:09:57.875Z,91.10
2022-10-28T06:12:25.410Z,91.20
2022-10-28T06:14:53.110Z,91.20
2022-10-28T06:17:20.849Z,91.20
2022-10-28T06:19:48.747Z,91.20
2022-10-28T06:22:16.937Z,91.10
2022-10-28T06:24:44.771Z,91.20
2022-10-28T06:27:12.474Z,91.20
2022-10-28T06:29:41.513Z,91.20
2022-10-28T06:32:10.081Z,91.20
2022-10-28T06:34:38.248Z,91.20
2022-10-28T06:37:06.502Z,91.20
2022-10-28T06:39:34.276Z,91.20
2022-10-28T06:42:02.030Z,91.20
2022-10-28T06:44:29.747Z,91.20
2022-10-28T06:47:00.295Z,91.20
2022-10-28T06:49:30.250Z,91.20
2022-10-28T06:51:57.958Z,91.20
2022-10-28T06:54:25.659Z,91.20
2022-10-28T06:56:53.434Z,91.20
2022-10-28T06:59:22.446Z,91.20
2022-10-28T07:01:50.243Z,91.20
2022-10-28T07:04:19.357Z,91.20
2022-10-28T07:06:49.831Z,91.20
2022-10-28T07:09:19.700Z,91.20
2022-10-28T07:11:54.829Z,91.20
2022-10-28T07:14:23.112Z,91.20
2022-10-28T07:16:50.904Z,91.20
2022-10-28T07:19:22.599Z,91.20
2022-10-28T07:21:50.569Z,91.20
2022-10-28T07:24:19.569Z,91.30
2022-10-28T07:26:51.093Z,91.30
2022-10-28T07:29:20.845Z,91.30
2022-10-28T07:31:48.552Z,91.30
2022-10-28T07:34:16.716Z,91.40
2022-10-28T07:36:45.857Z,91.30
2022-10-28T07:39:13.708Z,91.30
2022-10-28T07:41:41.462Z,91.20
2022-10-28T07:44:09.187Z,91.20
2022-10-28T07:46:36.998Z,91.10
2022-10-28T07:49:05.098Z,91.10
2022-10-28T07:51:32.858Z,91.20
2022-10-28T07:54:02.116Z,91.50
2022-10-28T07:56:30.015Z,91.00
2022-10-28T07:58:59.013Z,90.90
2022-10-28T08:01:26.803Z,90.90
2022-10-28T08:03:55.016Z,90.80
2022-10-28T08:06:22.815Z,90.90
2022-10-28T08:08:54.827Z,90.90
2022-10-28T08:11:24.748Z,90.90
2022-10-28T08:13:53.316Z,91.00
2022-10-28T08:16:21.367Z,91.10
2022-10-28T08:18:51.057Z,91.10
2022-10-28T08:21:18.790Z,91.30
2022-10-28T08:23:47.044Z,91.20
2022-10-28T08:26:16.108Z,91.20
2022-10-28T08:28:45.556Z,91.30
2022-10-28T08:31:13.872Z,91.60
2022-10-28T08:33:44.733Z,91.30
2022-10-28T08:36:13.779Z,91.30
2022-10-28T08:38:45.536Z,91.30
2022-10-28T08:41:41.044Z,91.40
2022-10-28T08:44:42.177Z,91.40
2022-10-28T08:47:23.352Z,91.30
2022-10-28T08:49:56.679Z,91.30
2022-10-28T08:52:31.522Z,91.40
2022-10-28T08:55:05.337Z,91.40
2022-10-28T08:57:38.996Z,91.30
2022-10-28T09:00:17.786Z,91.40
2022-10-28T09:02:56.902Z,91.40
2022-10-28T09:05:26.632Z,91.30
2022-10-28T09:07:55.784Z,91.30
2022-10-28T09:10:43.896Z,91.30
2022-10-28T09:13:22.824Z,91.30
2022-10-28T09:16:01.265Z,91.30
2022-10-28T09:18:44.048Z,91.20
2022-10-28T09:21:20.377Z,91.20
2022-10-28T09:23:58.798Z,91.20
2022-10-28T09:26:38.307Z,91.10
2022-10-28T09:29:25.548Z,91.10
2022-10-28T09:31:59.779Z,91.10
2022-10-28T09:34:36.634Z,91.10
2022-10-28T09:37:12.001Z,91.10
2022-10-28T09:39:44.101Z,91.10
2022-10-28T09:42:19.009Z,91.10
2022-10-28T09:44:50.535Z,91.10
2022-10-28T09:47:29.083Z,91.10
2022-10-28T09:50:01.104Z,91.10
2022-10-28T09:52:33.234Z,91.00
2022-10-28T09:55:08.405Z,91.10
2022-10-28T09:57:41.623Z,91.00
2022-10-28T10:00:14.427Z,91.10
2022-10-28T10:02:44.638Z,91.10
2022-10-28T10:05:17.515Z,91.10
2022-10-28T10:07:49.290Z,91.00
2022-10-28T10:10:23.154Z,91.10
2022-10-28T10:13:00.124Z,91.10
2022-10-28T10:15:32.488Z,91.10
2022-10-28T10:18:04.933Z,91.10
2022-10-28T10:20:48.837Z,91.10
2022-10-28T10:23:25.201Z,91.10
2022-10-28T10:25:58.664Z,91.10
2022-10-28T10:28:28.383Z,91.10
2022-10-28T10:30:58.696Z,91.10
2022-10-28T10:33:31.770Z,91.20
2022-10-28T10:36:03.372Z,91.20
2022-10-28T10:38:32.638Z,91.10
2022-10-28T10:41:03.466Z,91.10
2022-10-28T10:43:33.277Z,91.00
2022-10-28T10:46:06.477Z,91.00
2022-10-28T10:48:37.126Z,91.00
2022-10-28T10:51:12.567Z,91.00
2022-10-28T10:53:41.450Z,91.00
2022-10-28T10:56:13.136Z,91.10
2022-10-28T10:58:48.030Z,91.10
2022-10-28T11:01:20.634Z,91.10
2022-10-28T11:03:51.409Z,91.10
2022-10-28T11:06:24.598Z,91.10
2022-10-28T11:08:57.476Z,91.10
2022-10-28T11:11:33.802Z,91.20
2022-10-28T11:14:08.425Z,91.20
2022-10-28T11:16:48.421Z,91.20
2022-10-28T11:19:22.086Z,91.20
2022-10-28T11:22:13.542Z,91.30
2022-10-28T11:24:56.138Z,91.30
2022-10-28T11:27:35.334Z,91.20
2022-10-28T11:30:03.964Z,91.20
2022-10-28T11:32:54.560Z,91.10
2022-10-28T11:35:50.914Z,91.20
2022-10-28T11:38:35.566Z,91.10
2022-10-28T11:41:19.102Z,91.10
2022-10-28T11:43:55.068Z,91.10
2022-10-28T11:46:39.639Z,91.20
2022-10-28T11:49:37.011Z,91.10
2022-10-28T11:52:18.804Z,91.20
2022-10-28T11:55:04.302Z,91.20
2022-10-28T11:57:47.525Z,91.30
2022-10-28T12:00:33.047Z,91.30
2022-10-28T12:03:17.381Z,91.30
2022-10-28T12:05:51.345Z,91.30
2022-10-28T12:08:32.687Z,91.30
2022-10-28T12:11:20.998Z,91.40
2022-10-28T12:13:58.528Z,91.50
2022-10-28T12:16:38.997Z,91.50
2022-10-28T12:19:13.002Z,91.30
2022-10-28T12:21:45.150Z,91.20
2022-10-28T12:24:18.453Z,91.10
2022-10-28T12:26:49.886Z,91.10
2022-10-28T12:29:23.282Z,91.10
2022-10-28T12:31:56.369Z,91.00
2022-10-28T12:34:32.449Z,91.00
2022-10-28T12:37:05.623Z,91.10
2022-10-28T12:39:39.268Z,91.10
2022-10-28T12:42:13.587Z,91.10
2022-10-28T12:44:42.669Z,91.50
2022-10-28T12:47:20.258Z,91.20
2022-10-28T12:50:02.692Z,91.20
2022-10-28T12:52:41.579Z,91.10
2022-10-28T12:55:20.271Z,91.10
2022-10-28T12:57:53.625Z,91.10
2022-10-28T13:00:26.595Z,91.10
2022-10-28T13:03:01.290Z,91.10
2022-10-28T13:05:35.814Z,91.10
2022-10-28T13:08:41.482Z,91.00
2022-10-28T13:12:01.653Z,91.00
2022-10-28T13:14:48.762Z,91.00
2022-10-28T13:17:28.801Z,91.10
2022-10-28T13:20:26.605Z,91.10
2022-10-28T13:23:04.131Z,91.10
2022-10-28T13:26:04.460Z,91.10
2022-10-28T13:28:36.671Z,91.10
2022-10-28T13:31:07.303Z,91.10
2022-10-28T13:33:37.137Z,91.10
2022-10-28T13:36:12.731Z,91.10
2022-10-28T13:38:41.643Z,91.10
2022-10-28T13:41:26.667Z,91.10
2022-10-28T13:44:23.316Z,91.10
2022-10-28T13:47:25.367Z,91.10
2022-10-28T13:50:16.510Z,91.10
2022-10-28T13:52:45.760Z,91.10
2022-10-28T13:55:23.791Z,91.20
2022-10-28T13:57:53.231Z,91.30
2022-10-28T14:00:38.742Z,91.20
2022-10-28T14:03:17.671Z,91.30
2022-10-28T14:05:54.366Z,91.30
2022-10-28T14:08:27.763Z,91.30
2022-10-28T14:11:03.486Z,91.30
2022-10-28T14:13:34.004Z,91.30
2022-10-28T14:16:26.020Z,91.30
2022-10-28T14:18:58.056Z,91.20
2022-10-28T14:21:26.138Z,91.20
2022-10-28T14:24:12.407Z,91.20
2022-10-28T14:27:20.261Z,91.20
2022-10-28T14:29:49.767Z,91.20
2022-10-28T14:32:42.726Z,91.20
2022-10-28T14:35:22.738Z,91.20
2022-10-28T14:38:27.816Z,91.20
2022-10-28T14:41:06.664Z,91.10
2022-10-28T14:43:44.320Z,91.10
2022-10-28T14:46:26.339Z,91.10
2022-10-28T14:48:56.749Z,91.10
2022-10-28T14:51:26.593Z,91.10
2022-10-28T14:53:58.545Z,91.10
2022-10-28T14:56:28.570Z,91.10
2022-10-28T14:59:00.047Z,91.00
2022-10-28T15:01:33.140Z,91.00
2022-10-28T15:04:05.650Z,91.00
2022-10-28T15:06:37.435Z,91.00
2022-10-28T15:09:11.875Z,91.00
2022-10-28T15:11:46.414Z,91.00
2022-10-28T15:14:29.693Z,91.00
2022-10-28T15:16:58.191Z,91.30
2022-10-28T15:19:29.063Z,90.90
2022-10-28T15:22:05.992Z,90.90
2022-10-28T15:24:34.067Z,90.90
2022-10-28T15:27:01.829Z,90.90
2022-10-28T15:29:29.733Z,90.90
2022-10-28T15:32:29.415Z,90.90
2022-10-28T15:34:58.766Z,90.90
2022-10-28T15:37:28.995Z,90.90
2022-10-28T15:40:13.813Z,90.90
2022-10-28T15:42:45.513Z,90.90
2022-10-28T15:45:26.528Z,90.80
2022-10-28T15:47:55.903Z,90.80
2022-10-28T15:50:31.641Z,90.80
2022-10-28T15:53:31.877Z,90.80
2022-10-28T15:56:21.377Z,90.80
2022-10-28T15:59:01.583Z,90.80
2022-10-28T16:01:32.436Z,90.80
2022-10-28T16:04:01.044Z,90.80
2022-10-28T16:06:33.591Z,90.80
2022-10-28T16:09:08.641Z,90.80
2022-10-28T16:11:41.336Z,90.80
2022-10-28T16:14:24.637Z,90.70
2022-10-28T16:16:52.542Z,90.70
2022-10-28T16:19:29.550Z,90.80
2022-10-28T16:21:58.700Z,90.80
2022-10-28T16:24:26.391Z,90.80
2022-10-28T16:26:54.140Z,90.80
2022-10-28T16:29:21.874Z,90.80
2022-10-28T16:31:52.456Z,90.80
2022-10-28T16:34:20.324Z,90.80
2022-10-28T16:36:48.017Z,90.80
2022-10-28T16:39:17.064Z,90.80
2022-10-28T16:41:44.847Z,90.70
2022-10-28T16:44:17.838Z,90.70
2022-10-28T16:46:45.600Z,90.60
2022-10-28T16:49:13.292Z,90.60
2022-10-28T16:51:41.037Z,90.60
2022-10-28T16:54:09.310Z,90.50
2022-10-28T16:56:38.949Z,90.50
2022-10-28T16:59:06.648Z,90.50
2022-10-28T17:01:35.322Z,90.40
2022-10-28T17:04:03.205Z,90.40
2022-10-28T17:06:31.035Z,90.40
2022-10-28T17:09:03.580Z,90.40
2022-10-28T17:14:00.908Z,90.40
2022-10-28T17:16:28.589Z,90.40
2022-10-28T17:18:56.276Z,90.40
2022-10-28T17:21:24.001Z,90.40
2022-10-28T17:23:51.790Z,90.40
2022-10-28T17:26:19.539Z,90.40
2022-10-28T17:28:52.330Z,90.40
2022-10-28T17:31:24.899Z,90.40
2022-10-28T17:33:54.746Z,90.40
2022-10-28T17:36:23.984Z,90.40
2022-10-28T17:38:51.717Z,90.40
2022-10-28T17:41:19.831Z,90.40
2022-10-28T17:43:47.646Z,90.50
2022-10-28T17:46:15.424Z,90.40
2022-10-28T17:48:44.613Z,90.40
2022-10-28T17:51:12.852Z,90.40
2022-10-28T17:53:40.675Z,90.40
2022-10-28T17:56:09.350Z,90.40
2022-10-28T17:58:37.216Z,90.40
2022-10-28T18:01:07.321Z,90.40
2022-10-28T18:03:38.950Z,90.40
2022-10-28T18:06:11.415Z,90.40
2022-10-28T18:08:40.987Z,90.40
2022-10-28T18:11:10.470Z,90.40
2022-10-28T18:13:40.368Z,90.40
2022-10-28T18:16:10.437Z,90.50
2022-10-28T18:18:42.141Z,90.40
2022-10-28T18:21:12.738Z,90.40
2022-10-28T18:23:41.493Z,90.40
2022-10-28T18:26:12.798Z,90.50
2022-10-28T18:28:41.873Z,90.50
2022-10-28T18:31:12.319Z,90.60
2022-10-28T18:33:40.040Z,90.60
2022-10-28T18:36:10.986Z,90.60
2022-10-28T18:38:40.381Z,90.60
2022-10-28T18:41:11.559Z,90.50
2022-10-28T18:43:39.322Z,90.60
2022-10-28T18:46:07.200Z,90.60
2022-10-28T18:48:35.098Z,90.50
2022-10-28T18:51:06.591Z,90.50
2022-10-28T18:53:36.737Z,90.50
2022-10-28T18:56:07.079Z,90.50
2022-10-28T18:58:35.452Z,90.50
2022-10-28T19:01:07.987Z,90.40
2022-10-28T19:03:36.152Z,90.50
2022-10-28T19:06:05.608Z,90.40
2022-10-28T19:08:33.727Z,90.50
2022-10-28T19:11:03.128Z,90.50
2022-10-28T19:13:34.036Z,90.50
2022-10-28T19:16:02.148Z,90.50
2022-10-28T19:18:30.206Z,90.40
2022-10-28T19:21:04.159Z,90.40
2022-10-28T19:23:32.411Z,90.40
2022-10-28T19:26:00.856Z,90.30
2022-10-28T19:28:29.561Z,90.40
2022-10-28T19:31:02.937Z,90.40
2022-10-28T19:33:32.000Z,90.40
2022-10-28T19:36:04.028Z,90.40
2022-10-28T19:38:32.993Z,90.50
2022-10-28T19:41:08.915Z,90.50
2022-10-28T19:43:37.459Z,90.50
2022-10-28T19:46:12.003Z,90.50
2022-10-28T19:48:41.183Z,90.40
2022-10-28T19:51:10.012Z,90.40
2022-10-28T19:53:37.791Z,90.40
2022-10-28T19:56:05.927Z,90.40
2022-10-28T19:58:34.772Z,90.40
2022-10-28T20:01:05.636Z,90.40
2022-10-28T20:03:36.870Z,90.40
2022-10-28T20:06:07.816Z,90.50
2022-10-28T20:08:36.826Z,90.50
2022-10-28T20:11:06.643Z,90.60
2022-10-28T20:13:35.097Z,90.50
2022-10-28T20:16:05.185Z,90.50
2022-10-28T20:18:34.956Z,90.50
2022-10-28T20:21:07.220Z,90.50
2022-10-28T20:23:35.716Z,90.50
2022-10-28T20:26:04.575Z,90.50
2022-10-28T20:28:32.919Z,90.50
2022-10-28T20:31:02.542Z,90.50
2022-10-28T20:33:31.281Z,90.60
2022-10-28T20:36:00.366Z,90.60
2022-10-28T20:38:28.830Z,90.60
2022-10-28T20:40:58.403Z,90.60
2022-10-28T20:43:29.968Z,90.60
2022-10-28T20:45:59.632Z,90.60
2022-10-28T20:48:28.254Z,90.60
2022-10-28T20:50:57.880Z,90.60
2022-10-28T20:53:31.166Z,90.60
2022-10-28T20:56:00.009Z,90.60
2022-10-28T20:58:30.092Z,90.60
2022-10-28T21:01:03.368Z,90.50
2022-10-28T21:03:31.147Z,90.50
2022-10-28T21:05:58.900Z,90.50
2022-10-28T21:08:27.949Z,90.50
2022-10-28T21:10:56.090Z,90.50
2022-10-28T21:13:23.779Z,90.80
2022-10-28T21:15:56.430Z,90.50
2022-10-28T21:18:26.007Z,90.50
2022-10-28T21:20:56.937Z,90.40
2022-10-28T21:23:24.804Z,90.50
2022-10-28T21:25:57.804Z,90.50
2022-10-28T21:28:26.877Z,90.50
2022-10-28T21:30:59.834Z,90.40
2022-10-28T21:33:28.121Z,90.40
2022-10-28T21:35:56.867Z,90.40
2022-10-28T21:38:24.724Z,90.40
2022-10-28T21:41:01.518Z,90.50
2022-10-28T21:43:30.781Z,90.60
2022-10-28T21:45:58.629Z,90.60
2022-10-28T21:48:28.439Z,90.60
2022-10-28T21:50:57.828Z,90.70
2022-10-28T21:53:26.246Z,90.60
2022-10-28T21:55:55.644Z,90.50
2022-10-28T21:58:24.785Z,90.50
2022-10-28T22:00:52.529Z,90.80
2022-10-28T22:03:20.243Z,90.50
2022-10-28T22:05:51.511Z,90.50
2022-10-28T22:08:19.369Z,90.60
2022-10-28T22:10:47.086Z,90.60
2022-10-28T22:13:14.785Z,90.50
2022-10-28T22:15:43.860Z,90.50
2022-10-28T22:18:11.635Z,90.50
2022-10-28T22:20:39.352Z,90.50
2022-10-28T22:23:07.064Z,90.50
2022-10-28T22:25:34.837Z,90.60
2022-10-28T22:28:02.579Z,90.60
2022-10-28T22:30:30.263Z,90.60
2022-10-28T22:32:59.320Z,90.60
2022-10-28T22:35:27.061Z,90.70
2022-10-28T22:37:55.276Z,90.70
2022-10-28T22:40:23.252Z,90.70
2022-10-28T22:42:51.115Z,90.70
2022-10-28T22:45:18.986Z,90.70
2022-10-28T22:47:46.708Z,90.70
2022-10-28T22:50:16.052Z,90.70
2022-10-28T22:52:43.713Z,90.70
2022-10-28T22:55:11.696Z,90.70
2022-10-28T22:57:39.586Z,90.60
2022-10-28T23:00:08.808Z,90.50
2022-10-28T23:02:36.674Z,90.50
2022-10-28T23:05:04.750Z,90.60
2022-10-28T23:07:33.816Z,90.70
2022-10-28T23:10:01.530Z,90.60
2022-10-28T23:12:29.267Z,90.60
2022-10-28T23:14:58.520Z,90.50
2022-10-28T23:17:26.262Z,90.50
2022-10-28T23:19:53.985Z,90.50
2022-10-28T23:22:21.908Z,90.60
2022-10-28T23:24:50.951Z,90.70
2022-10-28T23:27:18.622Z,90.80
2022-10-28T23:29:46.485Z,90.80
2022-10-28T23:32:14.218Z,90.80
2022-10-28T23:34:41.923Z,90.70
2022-10-28T23:37:09.701Z,90.70
2022-10-28T23:39:37.664Z,90.70
2022-10-28T23:42:06.990Z,90.70
2022-10-28T23:44:34.727Z,90.80
2022-10-28T23:47:02.439Z,90.80
2022-10-28T23:49:30.181Z,90.80
2022-10-28T23:51:57.968Z,90.80
2022-10-28T23:54:25.672Z,90.90
2022-10-28T23:56:53.464Z,90.80
2022-10-28T23:59:22.715Z,90.80
